sensor_id;sensor_type;location;lat;lon;timestamp;P1;durP1;ratioP1;P2;durP2;ratioP2
67602;SDS011;54417;47.454;18.918;2022-08-02T00:00:59;5.03;;;2.67;;
67602;SDS011;54417;47.454;18.918;2022-08-02T00:06:22;2.83;;;2.50;;
67602;SDS011;54417;47.454;18.918;2022-08-02T00:11:48;3.50;;;2.83;;
67602;SDS011;54417;47.454;18.918;2022-08-02T00:17:11;3.35;;;2.80;;
67602;SDS011;54417;47.454;18.918;2022-08-02T00:22:35;4.68;;;2.95;;
67602;SDS011;54417;47.454;18.918;2022-08-02T00:28:00;3.38;;;3.08;;
67602;SDS011;54417;47.454;18.918;2022-08-02T00:33:24;3.00;;;2.80;;
67602;SDS011;54417;47.454;18.918;2022-08-02T00:39:07;4.05;;;3.10;;
67602;SDS011;54417;47.454;18.918;2022-08-02T00:44:52;2.70;;;2.50;;
67602;SDS011;54417;47.454;18.918;2022-08-02T00:50:16;3.05;;;2.75;;
67602;SDS011;54417;47.454;18.918;2022-08-02T00:55:40;4.07;;;3.03;;
67602;SDS011;54417;47.454;18.918;2022-08-02T01:01:05;2.92;;;2.72;;
67602;SDS011;54417;47.454;18.918;2022-08-02T01:06:29;3.50;;;3.20;;
67602;SDS011;54417;47.454;18.918;2022-08-02T01:11:54;5.28;;;3.08;;
67602;SDS011;54417;47.454;18.918;2022-08-02T01:17:27;3.70;;;3.35;;
67602;SDS011;54417;47.454;18.918;2022-08-02T01:23:01;3.83;;;3.25;;
67602;SDS011;54417;47.454;18.918;2022-08-02T01:28:39;3.63;;;3.33;;
67602;SDS011;54417;47.454;18.918;2022-08-02T01:34:08;3.63;;;2.90;;
67602;SDS011;54417;47.454;18.918;2022-08-02T01:39:35;3.50;;;3.07;;
67602;SDS011;54417;47.454;18.918;2022-08-02T01:45:03;4.10;;;3.08;;
67602;SDS011;54417;47.454;18.918;2022-08-02T01:50:30;5.40;;;3.38;;
67602;SDS011;54417;47.454;18.918;2022-08-02T01:55:55;5.63;;;3.10;;
67602;SDS011;54417;47.454;18.918;2022-08-02T02:01:23;5.07;;;3.35;;
67602;SDS011;54417;47.454;18.918;2022-08-02T02:06:47;4.38;;;3.60;;
67602;SDS011;54417;47.454;18.918;2022-08-02T02:12:11;4.68;;;3.42;;
67602;SDS011;54417;47.454;18.918;2022-08-02T02:17:39;5.25;;;3.67;;
67602;SDS011;54417;47.454;18.918;2022-08-02T02:23:26;3.80;;;3.40;;
67602;SDS011;54417;47.454;18.918;2022-08-02T02:28:57;4.68;;;3.90;;
67602;SDS011;54417;47.454;18.918;2022-08-02T02:34:27;4.47;;;3.90;;
67602;SDS011;54417;47.454;18.918;2022-08-02T02:39:54;4.30;;;3.80;;
67602;SDS011;54417;47.454;18.918;2022-08-02T02:45:19;5.20;;;3.90;;
67602;SDS011;54417;47.454;18.918;2022-08-02T02:50:45;4.40;;;3.83;;
67602;SDS011;54417;47.454;18.918;2022-08-02T02:56:09;3.88;;;3.55;;
67602;SDS011;54417;47.454;18.918;2022-08-02T03:01:35;4.25;;;3.83;;
67602;SDS011;54417;47.454;18.918;2022-08-02T03:07:20;5.78;;;4.38;;
67602;SDS011;54417;47.454;18.918;2022-08-02T03:12:43;4.80;;;4.32;;
67602;SDS011;54417;47.454;18.918;2022-08-02T03:18:07;4.50;;;4.07;;
67602;SDS011;54417;47.454;18.918;2022-08-02T03:23:33;7.05;;;4.50;;
67602;SDS011;54417;47.454;18.918;2022-08-02T03:28:57;5.78;;;4.38;;
67602;SDS011;54417;47.454;18.918;2022-08-02T03:34:22;4.65;;;4.15;;
67602;SDS011;54417;47.454;18.918;2022-08-02T03:39:47;7.60;;;4.55;;
67602;SDS011;54417;47.454;18.918;2022-08-02T03:45:14;6.70;;;4.65;;
67602;SDS011;54417;47.454;18.918;2022-08-02T03:50:38;5.20;;;4.63;;
67602;SDS011;54417;47.454;18.918;2022-08-02T03:56:04;6.57;;;4.63;;
67602;SDS011;54417;47.454;18.918;2022-08-02T04:01:29;4.47;;;4.07;;
67602;SDS011;54417;47.454;18.918;2022-08-02T04:06:52;7.40;;;5.22;;
67602;SDS011;54417;47.454;18.918;2022-08-02T04:12:18;6.38;;;5.40;;
67602;SDS011;54417;47.454;18.918;2022-08-02T04:17:42;5.93;;;5.35;;
67602;SDS011;54417;47.454;18.918;2022-08-02T04:23:10;7.13;;;5.07;;
67602;SDS011;54417;47.454;18.918;2022-08-02T04:28:38;5.25;;;4.30;;
67602;SDS011;54417;47.454;18.918;2022-08-02T04:34:03;7.55;;;4.40;;
67602;SDS011;54417;47.454;18.918;2022-08-02T04:39:27;6.63;;;4.68;;
67602;SDS011;54417;47.454;18.918;2022-08-02T04:44:52;5.00;;;3.90;;
67602;SDS011;54417;47.454;18.918;2022-08-02T04:50:16;5.40;;;4.15;;
67602;SDS011;54417;47.454;18.918;2022-08-02T04:55:41;8.32;;;5.78;;
67602;SDS011;54417;47.454;18.918;2022-08-02T05:01:06;8.90;;;4.15;;
67602;SDS011;54417;47.454;18.918;2022-08-02T05:06:30;10.30;;;5.20;;
67602;SDS011;54417;47.454;18.918;2022-08-02T05:11:54;10.35;;;4.70;;
67602;SDS011;54417;47.454;18.918;2022-08-02T05:17:21;5.88;;;4.72;;
67602;SDS011;54417;47.454;18.918;2022-08-02T05:22:44;4.53;;;3.33;;
67602;SDS011;54417;47.454;18.918;2022-08-02T05:28:08;6.00;;;3.63;;
67602;SDS011;54417;47.454;18.918;2022-08-02T05:33:34;4.30;;;3.90;;
67602;SDS011;54417;47.454;18.918;2022-08-02T05:38:58;4.30;;;3.15;;
67602;SDS011;54417;47.454;18.918;2022-08-02T05:44:29;6.40;;;3.70;;
67602;SDS011;54417;47.454;18.918;2022-08-02T05:49:55;3.53;;;3.17;;
67602;SDS011;54417;47.454;18.918;2022-08-02T05:55:21;5.45;;;2.85;;
67602;SDS011;54417;47.454;18.918;2022-08-02T06:00:49;3.15;;;2.75;;
67602;SDS011;54417;47.454;18.918;2022-08-02T06:06:18;3.50;;;3.20;;
67602;SDS011;54417;47.454;18.918;2022-08-02T06:11:45;3.38;;;2.67;;
67602;SDS011;54417;47.454;18.918;2022-08-02T06:17:24;3.87;;;2.87;;
67602;SDS011;54417;47.454;18.918;2022-08-02T06:22:49;3.78;;;2.20;;
67602;SDS011;54417;47.454;18.918;2022-08-02T06:28:14;4.05;;;2.55;;
67602;SDS011;54417;47.454;18.918;2022-08-02T06:33:39;3.28;;;2.80;;
67602;SDS011;54417;47.454;18.918;2022-08-02T06:39:05;5.57;;;2.70;;
67602;SDS011;54417;47.454;18.918;2022-08-02T06:44:33;4.32;;;2.50;;
67602;SDS011;54417;47.454;18.918;2022-08-02T06:50:12;4.95;;;2.65;;
67602;SDS011;54417;47.454;18.918;2022-08-02T06:55:37;3.33;;;2.20;;
67602;SDS011;54417;47.454;18.918;2022-08-02T07:01:05;4.63;;;2.70;;
67602;SDS011;54417;47.454;18.918;2022-08-02T07:06:30;3.40;;;2.58;;
67602;SDS011;54417;47.454;18.918;2022-08-02T07:11:55;6.10;;;3.05;;
67602;SDS011;54417;47.454;18.918;2022-08-02T07:17:19;3.67;;;2.20;;
67602;SDS011;54417;47.454;18.918;2022-08-02T07:22:43;2.88;;;2.15;;
67602;SDS011;54417;47.454;18.918;2022-08-02T07:28:09;5.13;;;2.20;;
67602;SDS011;54417;47.454;18.918;2022-08-02T07:33:45;4.85;;;2.00;;
67602;SDS011;54417;47.454;18.918;2022-08-02T07:39:09;4.68;;;2.28;;
67602;SDS011;54417;47.454;18.918;2022-08-02T07:44:34;3.85;;;2.58;;
67602;SDS011;54417;47.454;18.918;2022-08-02T07:49:58;4.32;;;1.70;;
67602;SDS011;54417;47.454;18.918;2022-08-02T07:55:21;5.10;;;2.22;;
67602;SDS011;54417;47.454;18.918;2022-08-02T08:01:01;2.45;;;1.90;;
67602;SDS011;54417;47.454;18.918;2022-08-02T08:06:25;2.33;;;1.95;;
67602;SDS011;54417;47.454;18.918;2022-08-02T08:11:50;3.75;;;1.98;;
67602;SDS011;54417;47.454;18.918;2022-08-02T08:17:15;6.65;;;2.25;;
67602;SDS011;54417;47.454;18.918;2022-08-02T08:22:39;4.28;;;2.20;;
67602;SDS011;54417;47.454;18.918;2022-08-02T08:28:03;3.83;;;1.98;;
67602;SDS011;54417;47.454;18.918;2022-08-02T08:33:28;9.30;;;2.30;;
67602;SDS011;54417;47.454;18.918;2022-08-02T08:38:52;6.25;;;2.10;;
67602;SDS011;54417;47.454;18.918;2022-08-02T08:44:16;6.38;;;1.83;;
67602;SDS011;54417;47.454;18.918;2022-08-02T08:49:43;1.38;;;1.17;;
67602;SDS011;54417;47.454;18.918;2022-08-02T08:55:14;1.85;;;1.30;;
67602;SDS011;54417;47.454;18.918;2022-08-02T09:00:38;1.63;;;1.38;;
67602;SDS011;54417;47.454;18.918;2022-08-02T09:06:05;1.17;;;1.17;;
67602;SDS011;54417;47.454;18.918;2022-08-02T09:11:28;1.20;;;1.20;;
67602;SDS011;54417;47.454;18.918;2022-08-02T09:16:52;1.73;;;1.20;;
67602;SDS011;54417;47.454;18.918;2022-08-02T09:22:29;3.92;;;1.10;;
67602;SDS011;54417;47.454;18.918;2022-08-02T09:27:52;1.10;;;1.10;;
67602;SDS011;54417;47.454;18.918;2022-08-02T09:33:23;1.15;;;1.13;;
67602;SDS011;54417;47.454;18.918;2022-08-02T09:38:52;2.65;;;1.30;;
67602;SDS011;54417;47.454;18.918;2022-08-02T09:44:18;2.20;;;1.50;;
67602;SDS011;54417;47.454;18.918;2022-08-02T09:49:44;1.65;;;1.50;;
67602;SDS011;54417;47.454;18.918;2022-08-02T09:55:14;2.95;;;1.58;;
67602;SDS011;54417;47.454;18.918;2022-08-02T10:00:50;3.78;;;1.52;;
67602;SDS011;54417;47.454;18.918;2022-08-02T10:06:14;2.45;;;1.52;;
67602;SDS011;54417;47.454;18.918;2022-08-02T10:11:40;1.70;;;1.27;;
67602;SDS011;54417;47.454;18.918;2022-08-02T10:17:04;8.32;;;1.63;;
67602;SDS011;54417;47.454;18.918;2022-08-02T10:22:28;3.47;;;1.73;;
67602;SDS011;54417;47.454;18.918;2022-08-02T10:27:54;2.10;;;1.50;;
67602;SDS011;54417;47.454;18.918;2022-08-02T10:33:26;3.03;;;1.83;;
67602;SDS011;54417;47.454;18.918;2022-08-02T10:38:52;4.00;;;1.50;;
67602;SDS011;54417;47.454;18.918;2022-08-02T10:50:00;3.17;;;1.90;;
67602;SDS011;54417;47.454;18.918;2022-08-02T10:55:25;4.30;;;1.88;;
67602;SDS011;54417;47.454;18.918;2022-08-02T11:00:50;3.03;;;1.80;;
67602;SDS011;54417;47.454;18.918;2022-08-02T11:06:14;2.83;;;1.65;;
67602;SDS011;54417;47.454;18.918;2022-08-02T11:11:58;3.63;;;1.60;;
67602;SDS011;54417;47.454;18.918;2022-08-02T11:17:25;7.78;;;1.50;;
67602;SDS011;54417;47.454;18.918;2022-08-02T11:29:07;2.50;;;1.60;;
67602;SDS011;54417;47.454;18.918;2022-08-02T11:34:38;1.60;;;1.50;;
67602;SDS011;54417;47.454;18.918;2022-08-02T11:40:06;1.63;;;1.52;;
67602;SDS011;54417;47.454;18.918;2022-08-02T11:45:42;7.63;;;1.50;;
67602;SDS011;54417;47.454;18.918;2022-08-02T11:51:08;3.92;;;1.50;;
67602;SDS011;54417;47.454;18.918;2022-08-02T11:56:34;2.60;;;1.70;;
67602;SDS011;54417;47.454;18.918;2022-08-02T12:01:58;3.92;;;1.55;;
67602;SDS011;54417;47.454;18.918;2022-08-02T12:07:28;2.33;;;1.50;;
67602;SDS011;54417;47.454;18.918;2022-08-02T12:13:00;1.20;;;1.10;;
67602;SDS011;54417;47.454;18.918;2022-08-02T12:18:25;3.83;;;1.20;;
67602;SDS011;54417;47.454;18.918;2022-08-02T12:24:08;1.50;;;1.40;;
67602;SDS011;54417;47.454;18.918;2022-08-02T12:29:33;1.98;;;1.38;;
67602;SDS011;54417;47.454;18.918;2022-08-02T12:35:18;2.00;;;1.42;;
67602;SDS011;54417;47.454;18.918;2022-08-02T12:40:49;3.03;;;1.20;;
67602;SDS011;54417;47.454;18.918;2022-08-02T12:46:14;1.02;;;1.02;;
67602;SDS011;54417;47.454;18.918;2022-08-02T12:51:39;1.00;;;1.00;;
67602;SDS011;54417;47.454;18.918;2022-08-02T12:57:19;1.27;;;1.17;;
67602;SDS011;54417;47.454;18.918;2022-08-02T13:02:42;2.45;;;1.05;;
67602;SDS011;54417;47.454;18.918;2022-08-02T13:08:09;1.13;;;1.02;;
67602;SDS011;54417;47.454;18.918;2022-08-02T13:13:34;1.88;;;1.30;;
67602;SDS011;54417;47.454;18.918;2022-08-02T13:18:57;2.42;;;0.90;;
67602;SDS011;54417;47.454;18.918;2022-08-02T13:24:21;0.80;;;0.80;;
67602;SDS011;54417;47.454;18.918;2022-08-02T13:30:07;0.80;;;0.80;;
67602;SDS011;54417;47.454;18.918;2022-08-02T13:35:31;0.70;;;0.70;;
67602;SDS011;54417;47.454;18.918;2022-08-02T13:40:55;1.10;;;0.70;;
67602;SDS011;54417;47.454;18.918;2022-08-02T13:46:32;1.98;;;0.75;;
67602;SDS011;54417;47.454;18.918;2022-08-02T13:51:56;0.73;;;0.73;;
67602;SDS011;54417;47.454;18.918;2022-08-02T13:57:20;5.63;;;1.05;;
67602;SDS011;54417;47.454;18.918;2022-08-02T14:02:45;1.80;;;0.90;;
67602;SDS011;54417;47.454;18.918;2022-08-02T14:08:09;0.80;;;0.80;;
67602;SDS011;54417;47.454;18.918;2022-08-02T14:19:02;1.25;;;0.60;;
67602;SDS011;54417;47.454;18.918;2022-08-02T14:24:31;0.80;;;0.80;;
67602;SDS011;54417;47.454;18.918;2022-08-02T14:29:55;0.70;;;0.70;;
67602;SDS011;54417;47.454;18.918;2022-08-02T14:35:20;1.05;;;0.82;;
67602;SDS011;54417;47.454;18.918;2022-08-02T14:40:44;0.70;;;0.70;;
67602;SDS011;54417;47.454;18.918;2022-08-02T14:46:08;0.65;;;0.65;;
67602;SDS011;54417;47.454;18.918;2022-08-02T14:51:33;0.98;;;0.70;;
67602;SDS011;54417;47.454;18.918;2022-08-02T14:56:59;1.05;;;0.80;;
67602;SDS011;54417;47.454;18.918;2022-08-02T15:02:24;0.80;;;0.80;;
67602;SDS011;54417;47.454;18.918;2022-08-02T15:07:51;0.90;;;0.90;;
67602;SDS011;54417;47.454;18.918;2022-08-02T15:13:15;0.80;;;0.80;;
67602;SDS011;54417;47.454;18.918;2022-08-02T15:18:39;3.72;;;0.90;;
67602;SDS011;54417;47.454;18.918;2022-08-02T15:24:05;0.95;;;0.85;;
67602;SDS011;54417;47.454;18.918;2022-08-02T15:29:29;0.80;;;0.80;;
67602;SDS011;54417;47.454;18.918;2022-08-02T15:34:53;2.53;;;0.93;;
67602;SDS011;54417;47.454;18.918;2022-08-02T15:40:20;0.80;;;0.80;;
67602;SDS011;54417;47.454;18.918;2022-08-02T15:45:44;1.75;;;0.80;;
67602;SDS011;54417;47.454;18.918;2022-08-02T15:51:07;2.42;;;0.80;;
67602;SDS011;54417;47.454;18.918;2022-08-02T15:56:33;0.73;;;0.73;;
67602;SDS011;54417;47.454;18.918;2022-08-02T16:01:56;0.77;;;0.73;;
67602;SDS011;54417;47.454;18.918;2022-08-02T16:07:20;1.92;;;0.90;;
67602;SDS011;54417;47.454;18.918;2022-08-02T16:12:45;0.80;;;0.80;;
67602;SDS011;54417;47.454;18.918;2022-08-02T16:18:09;0.80;;;0.80;;
67602;SDS011;54417;47.454;18.918;2022-08-02T16:23:33;1.00;;;0.90;;
67602;SDS011;54417;47.454;18.918;2022-08-02T16:29:18;1.27;;;0.85;;
67602;SDS011;54417;47.454;18.918;2022-08-02T16:34:42;2.95;;;1.02;;
67602;SDS011;54417;47.454;18.918;2022-08-02T16:40:25;0.95;;;0.95;;
67602;SDS011;54417;47.454;18.918;2022-08-02T16:45:50;1.10;;;1.00;;
67602;SDS011;54417;47.454;18.918;2022-08-02T16:51:15;1.95;;;1.05;;
67602;SDS011;54417;47.454;18.918;2022-08-02T16:56:40;0.73;;;0.73;;
67602;SDS011;54417;47.454;18.918;2022-08-02T17:02:05;0.98;;;0.98;;
67602;SDS011;54417;47.454;18.918;2022-08-02T17:07:40;4.30;;;0.90;;
67602;SDS011;54417;47.454;18.918;2022-08-02T17:13:24;1.33;;;1.23;;
67602;SDS011;54417;47.454;18.918;2022-08-02T17:18:49;1.15;;;1.00;;
67602;SDS011;54417;47.454;18.918;2022-08-02T17:24:14;1.33;;;0.80;;
67602;SDS011;54417;47.454;18.918;2022-08-02T17:29:40;1.05;;;0.95;;
67602;SDS011;54417;47.454;18.918;2022-08-02T17:35:08;3.50;;;1.02;;
67602;SDS011;54417;47.454;18.918;2022-08-02T17:40:36;1.67;;;1.17;;
67602;SDS011;54417;47.454;18.918;2022-08-02T17:46:00;0.88;;;0.70;;
67602;SDS011;54417;47.454;18.918;2022-08-02T17:51:25;0.80;;;0.73;;
67602;SDS011;54417;47.454;18.918;2022-08-02T17:57:09;2.15;;;0.80;;
67602;SDS011;54417;47.454;18.918;2022-08-02T18:02:35;0.63;;;0.63;;
67602;SDS011;54417;47.454;18.918;2022-08-02T18:08:01;1.90;;;0.75;;
67602;SDS011;54417;47.454;18.918;2022-08-02T18:13:26;0.85;;;0.77;;
67602;SDS011;54417;47.454;18.918;2022-08-02T18:18:56;0.68;;;0.68;;
67602;SDS011;54417;47.454;18.918;2022-08-02T18:24:27;0.68;;;0.68;;
67602;SDS011;54417;47.454;18.918;2022-08-02T18:29:52;0.60;;;0.60;;
67602;SDS011;54417;47.454;18.918;2022-08-02T18:35:36;4.65;;;0.77;;
67602;SDS011;54417;47.454;18.918;2022-08-02T18:41:01;0.75;;;0.75;;
67602;SDS011;54417;47.454;18.918;2022-08-02T18:46:33;0.75;;;0.75;;
67602;SDS011;54417;47.454;18.918;2022-08-02T18:51:59;2.97;;;0.90;;
67602;SDS011;54417;47.454;18.918;2022-08-02T18:57:25;4.00;;;0.80;;
67602;SDS011;54417;47.454;18.918;2022-08-02T19:03:09;1.10;;;1.00;;
67602;SDS011;54417;47.454;18.918;2022-08-02T19:08:35;0.73;;;0.73;;
67602;SDS011;54417;47.454;18.918;2022-08-02T19:14:00;0.52;;;0.52;;
67602;SDS011;54417;47.454;18.918;2022-08-02T19:19:24;0.90;;;0.90;;
67602;SDS011;54417;47.454;18.918;2022-08-02T19:24:50;2.42;;;0.90;;
67602;SDS011;54417;47.454;18.918;2022-08-02T19:30:23;6.07;;;0.90;;
67602;SDS011;54417;47.454;18.918;2022-08-02T19:35:47;4.60;;;1.40;;
67602;SDS011;54417;47.454;18.918;2022-08-02T19:41:23;1.35;;;1.25;;
67602;SDS011;54417;47.454;18.918;2022-08-02T19:46:48;1.50;;;1.10;;
67602;SDS011;54417;47.454;18.918;2022-08-02T19:52:12;4.03;;;1.17;;
67602;SDS011;54417;47.454;18.918;2022-08-02T19:57:43;2.92;;;1.13;;
67602;SDS011;54417;47.454;18.918;2022-08-02T20:03:10;3.25;;;1.20;;
67602;SDS011;54417;47.454;18.918;2022-08-02T20:08:37;2.47;;;1.23;;
67602;SDS011;54417;47.454;18.918;2022-08-02T20:14:13;3.60;;;1.33;;
67602;SDS011;54417;47.454;18.918;2022-08-02T20:19:39;1.05;;;0.98;;
67602;SDS011;54417;47.454;18.918;2022-08-02T20:25:07;2.15;;;1.40;;
67602;SDS011;54417;47.454;18.918;2022-08-02T20:30:37;1.88;;;1.10;;
67602;SDS011;54417;47.454;18.918;2022-08-02T20:36:02;1.52;;;1.23;;
67602;SDS011;54417;47.454;18.918;2022-08-02T20:41:26;5.35;;;1.30;;
67602;SDS011;54417;47.454;18.918;2022-08-02T20:47:06;1.02;;;0.93;;
67602;SDS011;54417;47.454;18.918;2022-08-02T20:52:32;3.00;;;1.27;;
67602;SDS011;54417;47.454;18.918;2022-08-02T20:57:56;1.27;;;1.13;;
67602;SDS011;54417;47.454;18.918;2022-08-02T21:03:23;1.00;;;1.00;;
67602;SDS011;54417;47.454;18.918;2022-08-02T21:09:02;1.10;;;0.95;;
67602;SDS011;54417;47.454;18.918;2022-08-02T21:14:26;1.30;;;1.20;;
67602;SDS011;54417;47.454;18.918;2022-08-02T21:19:50;1.98;;;1.20;;
67602;SDS011;54417;47.454;18.918;2022-08-02T21:25:15;2.40;;;1.30;;
67602;SDS011;54417;47.454;18.918;2022-08-02T21:30:44;4.63;;;1.63;;
67602;SDS011;54417;47.454;18.918;2022-08-02T21:36:08;2.88;;;1.50;;
67602;SDS011;54417;47.454;18.918;2022-08-02T21:41:33;1.30;;;1.20;;
67602;SDS011;54417;47.454;18.918;2022-08-02T21:47:07;1.33;;;1.23;;
67602;SDS011;54417;47.454;18.918;2022-08-02T21:52:32;2.47;;;1.25;;
67602;SDS011;54417;47.454;18.918;2022-08-02T21:57:57;1.88;;;1.45;;
67602;SDS011;54417;47.454;18.918;2022-08-02T22:03:21;2.20;;;1.65;;
67602;SDS011;54417;47.454;18.918;2022-08-02T22:08:44;4.70;;;1.55;;
67602;SDS011;54417;47.454;18.918;2022-08-02T22:14:10;2.45;;;1.50;;
67602;SDS011;54417;47.454;18.918;2022-08-02T22:19:34;4.00;;;1.80;;
67602;SDS011;54417;47.454;18.918;2022-08-02T22:24:58;2.00;;;1.60;;
67602;SDS011;54417;47.454;18.918;2022-08-02T22:30:26;2.65;;;1.50;;
67602;SDS011;54417;47.454;18.918;2022-08-02T22:35:50;3.25;;;1.67;;
67602;SDS011;54417;47.454;18.918;2022-08-02T22:41:14;1.58;;;1.48;;
67602;SDS011;54417;47.454;18.918;2022-08-02T22:46:39;2.55;;;2.03;;
67602;SDS011;54417;47.454;18.918;2022-08-02T22:52:03;2.85;;;1.70;;
67602;SDS011;54417;47.454;18.918;2022-08-02T22:57:27;2.08;;;1.88;;
67602;SDS011;54417;47.454;18.918;2022-08-02T23:02:53;6.13;;;2.30;;
67602;SDS011;54417;47.454;18.918;2022-08-02T23:08:17;2.00;;;1.90;;
67602;SDS011;54417;47.454;18.918;2022-08-02T23:13:41;1.85;;;1.70;;
67602;SDS011;54417;47.454;18.918;2022-08-02T23:19:06;2.42;;;1.58;;
67602;SDS011;54417;47.454;18.918;2022-08-02T23:24:48;3.67;;;1.65;;
67602;SDS011;54417;47.454;18.918;2022-08-02T23:30:12;3.20;;;1.75;;
67602;SDS011;54417;47.454;18.918;2022-08-02T23:35:37;2.45;;;1.90;;
67602;SDS011;54417;47.454;18.918;2022-08-02T23:41:02;2.58;;;1.77;;
67602;SDS011;54417;47.454;18.918;2022-08-02T23:46:25;3.20;;;1.90;;
67602;SDS011;54417;47.454;18.918;2022-08-02T23:51:51;2.13;;;1.92;;
67602;SDS011;54417;47.454;18.918;2022-08-02T23:57:22;2.03;;;1.83;;
